createdAt,value
2022-08-03T00:01:56.841Z,21.62
2022-08-03T00:06:59.689Z,21.52
2022-08-03T00:12:02.717Z,19.77
2022-08-03T00:17:05.908Z,19.58
2022-08-03T00:22:08.685Z,21.28
2022-08-03T00:27:11.563Z,21.35
2022-08-03T00:32:19.467Z,19.62
2022-08-03T00:37:41.641Z,19.49
2022-08-03T00:42:48.743Z,21.27
2022-08-03T00:47:51.813Z,21.27
2022-08-03T00:52:57.339Z,19.57
2022-08-03T00:58:01.644Z,19.41
2022-08-03T01:03:05.921Z,21.12
2022-08-03T01:08:35.418Z,21.11
2022-08-03T01:14:03.566Z,19.24
2022-08-03T01:19:24.395Z,19.35
2022-08-03T01:24:55.165Z,21.13
2022-08-03T01:30:07.133Z,20.22
2022-08-03T01:35:16.665Z,18.78
2022-08-03T01:40:22.293Z,18.96
2022-08-03T01:45:26.898Z,20.87
2022-08-03T01:50:32.011Z,20.46
2022-08-03T01:55:36.780Z,18.88
2022-08-03T02:00:41.487Z,18.89
2022-08-03T02:05:46.374Z,20.77
2022-08-03T02:10:50.765Z,20.62
2022-08-03T02:15:54.872Z,18.99
2022-08-03T02:20:59.291Z,18.90
2022-08-03T02:26:07.524Z,20.74
2022-08-03T02:31:18.210Z,20.83
2022-08-03T02:36:25.494Z,19.13
2022-08-03T02:41:32.738Z,19.09
2022-08-03T02:46:45.630Z,20.99
2022-08-03T02:51:50.591Z,20.93
2022-08-03T02:56:56.197Z,19.18
2022-08-03T03:02:01.625Z,19.08
2022-08-03T03:07:05.356Z,20.87
2022-08-03T03:12:11.312Z,20.95
2022-08-03T03:17:17.093Z,19.23
2022-08-03T03:22:21.477Z,19.46
2022-08-03T03:27:24.568Z,21.16
2022-08-03T03:32:29.096Z,21.11
2022-08-03T03:37:31.995Z,19.45
2022-08-03T03:42:35.321Z,19.39
2022-08-03T03:47:38.377Z,21.23
2022-08-03T03:52:41.339Z,21.35
2022-08-03T03:57:44.694Z,19.76
2022-08-03T04:02:48.195Z,19.71
2022-08-03T04:08:17.541Z,21.55
2022-08-03T04:13:22.194Z,21.25
2022-08-03T04:18:27.858Z,19.75
2022-08-03T04:23:36.277Z,19.87
2022-08-03T04:28:43.058Z,21.76
2022-08-03T04:33:46.997Z,21.49
2022-08-03T04:39:03.851Z,19.97
2022-08-03T04:44:08.815Z,20.10
2022-08-03T04:49:12.334Z,21.96
2022-08-03T04:54:18.933Z,21.71
2022-08-03T04:59:21.741Z,20.42
2022-08-03T05:04:24.527Z,20.69
2022-08-03T05:09:50.066Z,22.63
2022-08-03T05:14:50.170Z,21.91
2022-08-03T05:19:53.057Z,21.16
2022-08-03T05:24:56.364Z,20.78
2022-08-03T05:30:30.764Z,21.54
2022-08-03T05:35:55.699Z,23.57
2022-08-03T05:40:46.985Z,23.04
2022-08-03T05:46:11.976Z,22.84
2022-08-03T05:51:16.032Z,23.01
2022-08-03T05:56:22.743Z,23.38
2022-08-03T06:01:25.698Z,23.80
2022-08-03T06:06:32.161Z,24.26
2022-08-03T06:11:35.516Z,24.70
2022-08-03T06:16:38.410Z,25.05
2022-08-03T06:21:41.355Z,25.25
2022-08-03T06:26:44.376Z,25.58
2022-08-03T06:31:47.265Z,26.01
2022-08-03T06:36:52.347Z,26.14
2022-08-03T06:41:55.651Z,27.19
2022-08-03T06:47:09.261Z,30.48
2022-08-03T06:52:13.235Z,32.31
2022-08-03T06:57:36.107Z,34.63
2022-08-03T07:02:40.107Z,36.49
2022-08-03T07:07:44.111Z,37.23
2022-08-03T07:12:52.975Z,37.24
2022-08-03T07:17:59.669Z,37.11
2022-08-03T07:23:02.585Z,36.02
2022-08-03T07:28:05.640Z,35.90
2022-08-03T07:33:08.433Z,37.77
2022-08-03T07:38:11.220Z,39.13
2022-08-03T07:43:14.127Z,40.14
2022-08-03T07:48:17.359Z,40.99
2022-08-03T07:53:20.251Z,41.71
2022-08-03T07:58:24.464Z,42.39
2022-08-03T08:03:27.583Z,42.22
2022-08-03T08:08:50.431Z,41.32
2022-08-03T08:13:53.264Z,39.78
2022-08-03T08:18:56.012Z,38.15
2022-08-03T08:23:58.938Z,36.63
2022-08-03T08:29:01.681Z,35.19
2022-08-03T08:34:05.865Z,33.86
2022-08-03T08:39:08.702Z,32.83
2022-08-03T08:44:11.805Z,32.29
2022-08-03T08:49:23.220Z,31.96
2022-08-03T08:54:26.856Z,32.13
2022-08-03T08:59:48.404Z,32.29
2022-08-03T09:04:54.334Z,32.57
2022-08-03T09:10:11.294Z,33.05
2022-08-03T09:15:22.121Z,33.44
2022-08-03T09:20:26.886Z,33.23
2022-08-03T09:25:33.617Z,33.10
2022-08-03T09:30:38.473Z,32.80
2022-08-03T09:35:54.994Z,32.70
2022-08-03T09:41:01.039Z,32.59
2022-08-03T09:46:07.692Z,32.12
2022-08-03T09:51:13.056Z,31.79
2022-08-03T09:56:46.287Z,31.68
2022-08-03T10:01:49.097Z,31.57
2022-08-03T10:07:24.938Z,31.60
2022-08-03T10:12:29.226Z,31.75
2022-08-03T10:17:32.035Z,31.83
2022-08-03T10:22:36.904Z,31.80
2022-08-03T10:27:42.440Z,31.66
2022-08-03T10:33:02.958Z,31.61
2022-08-03T10:38:12.656Z,31.54
2022-08-03T10:43:23.137Z,31.43
2022-08-03T10:48:27.172Z,31.27
2022-08-03T10:53:55.074Z,31.15
2022-08-03T10:58:59.023Z,31.01
2022-08-03T11:04:10.966Z,30.95
2022-08-03T11:09:17.975Z,30.85
2022-08-03T11:14:22.191Z,30.70
2022-08-03T11:19:57.832Z,30.59
2022-08-03T11:25:02.612Z,30.59
2022-08-03T11:30:29.201Z,30.67
2022-08-03T11:35:43.858Z,30.58
2022-08-03T11:40:48.510Z,30.50
2022-08-03T11:46:07.424Z,30.44
2022-08-03T11:51:25.805Z,30.36
2022-08-03T11:56:30.113Z,30.42
2022-08-03T12:01:33.079Z,30.36
2022-08-03T12:06:55.234Z,30.27
2022-08-03T12:12:00.476Z,30.13
2022-08-03T12:17:04.290Z,30.08
2022-08-03T12:22:08.439Z,30.04
2022-08-03T12:27:11.330Z,29.90
2022-08-03T12:32:15.665Z,29.74
2022-08-03T12:37:22.638Z,29.69
2022-08-03T12:42:35.029Z,29.66
2022-08-03T12:48:00.775Z,29.53
2022-08-03T12:53:07.856Z,29.36
2022-08-03T12:58:33.644Z,29.22
2022-08-03T13:03:57.842Z,29.00
2022-08-03T13:09:08.067Z,29.01
2022-08-03T13:14:16.783Z,29.01
2022-08-03T13:19:23.259Z,29.05
2022-08-03T13:24:26.223Z,29.01
2022-08-03T13:29:29.205Z,28.79
2022-08-03T13:34:32.140Z,28.65
2022-08-03T13:39:35.111Z,28.61
2022-08-03T13:44:59.110Z,28.60
2022-08-03T13:50:03.085Z,28.46
2022-08-03T13:55:07.927Z,28.36
2022-08-03T14:00:11.963Z,28.27
2022-08-03T14:05:14.799Z,28.16
2022-08-03T14:10:19.846Z,28.21
2022-08-03T14:15:22.806Z,28.33
2022-08-03T14:20:36.869Z,28.39
2022-08-03T14:25:43.497Z,28.38
2022-08-03T14:30:55.865Z,28.40
2022-08-03T14:35:58.994Z,28.43
2022-08-03T14:41:01.931Z,28.37
2022-08-03T14:46:04.905Z,28.35
2022-08-03T14:51:07.893Z,28.37
2022-08-03T14:56:11.122Z,28.36
2022-08-03T15:02:04.776Z,28.33
2022-08-03T15:06:37.881Z,28.31
2022-08-03T15:11:40.889Z,28.26
2022-08-03T15:16:44.375Z,28.16
2022-08-03T15:21:47.753Z,28.11
2022-08-03T15:26:52.478Z,28.09
2022-08-03T15:31:55.273Z,28.06
2022-08-03T15:36:58.115Z,28.03
2022-08-03T15:42:00.998Z,28.07
2022-08-03T15:47:03.928Z,28.55
2022-08-03T15:52:06.855Z,28.61
2022-08-03T15:57:09.835Z,28.73
2022-08-03T16:02:13.052Z,28.71
2022-08-03T16:07:16.071Z,28.50
2022-08-03T16:12:18.899Z,28.28
2022-08-03T16:17:23.607Z,28.10
2022-08-03T16:22:27.207Z,27.96
2022-08-03T16:27:55.747Z,27.82
2022-08-03T16:32:53.160Z,27.68
2022-08-03T16:37:57.101Z,27.54
2022-08-03T16:43:00.055Z,27.42
2022-08-03T16:48:05.970Z,27.31
2022-08-03T16:53:10.124Z,27.21
2022-08-03T16:58:19.664Z,27.09
2022-08-03T17:03:42.677Z,26.96
2022-08-03T17:09:10.245Z,26.86
2022-08-03T17:14:14.925Z,26.72
2022-08-03T17:19:18.770Z,26.60
2022-08-03T17:24:28.321Z,26.47
2022-08-03T17:29:35.143Z,26.33
2022-08-03T17:34:38.700Z,26.19
2022-08-03T17:39:59.876Z,26.04
2022-08-03T17:45:03.813Z,25.88
2022-08-03T17:50:24.108Z,25.71
2022-08-03T17:55:56.673Z,25.51
2022-08-03T18:01:59.801Z,25.31
2022-08-03T18:06:55.769Z,25.09
2022-08-03T18:12:05.432Z,24.87
2022-08-03T18:17:15.785Z,24.68
2022-08-03T18:22:22.074Z,24.48
2022-08-03T18:27:45.412Z,24.29
2022-08-03T18:33:00.616Z,24.10
2022-08-03T18:38:04.244Z,23.90
2022-08-03T18:43:14.047Z,23.70
2022-08-03T18:48:40.638Z,23.52
2022-08-03T18:54:06.219Z,23.34
2022-08-03T18:59:14.854Z,23.17
2022-08-03T19:04:25.624Z,23.02
2022-08-03T19:09:35.076Z,22.88
2022-08-03T19:14:45.887Z,22.76
2022-08-03T19:19:51.348Z,22.64
2022-08-03T19:24:58.491Z,22.52
2022-08-03T19:30:11.857Z,22.39
2022-08-03T19:35:52.266Z,22.22
2022-08-03T19:40:50.916Z,22.05
2022-08-03T19:46:06.335Z,21.89
2022-08-03T19:51:12.157Z,21.72
2022-08-03T19:56:15.940Z,21.56
2022-08-03T20:06:43.467Z,21.25
2022-08-03T20:11:48.508Z,21.10
2022-08-03T20:16:51.899Z,20.95
2022-08-03T20:21:54.947Z,20.80
2022-08-03T20:27:00.400Z,20.66
2022-08-03T20:32:03.661Z,20.51
2022-08-03T20:37:09.474Z,20.36
2022-08-03T20:42:15.022Z,20.22
2022-08-03T20:47:27.128Z,20.07
2022-08-03T20:52:34.990Z,19.93
2022-08-03T20:57:53.741Z,19.78
2022-08-03T21:02:56.642Z,19.65
2022-08-03T21:08:07.151Z,20.30
2022-08-03T21:13:10.649Z,21.41
2022-08-03T21:13:25.800Z,22.66
2022-08-03T21:18:36.033Z,23.08
2022-08-03T21:23:49.892Z,21.77
2022-08-03T21:28:55.495Z,21.02
2022-08-03T21:34:02.664Z,20.53
2022-08-03T21:39:08.446Z,20.12
2022-08-03T21:44:11.897Z,19.78
2022-08-03T21:50:06.831Z,19.48
2022-08-03T21:54:43.484Z,20.25
2022-08-03T21:59:54.798Z,22.43
2022-08-03T22:04:58.164Z,22.69
2022-08-03T22:10:02.591Z,21.21
2022-08-03T22:15:09.512Z,20.30
2022-08-03T22:20:17.289Z,20.58
2022-08-03T22:25:24.795Z,22.52
2022-08-03T22:30:29.119Z,22.67
2022-08-03T22:35:47.288Z,21.11
2022-08-03T22:40:52.543Z,20.12
2022-08-03T22:46:09.528Z,21.36
2022-08-03T22:51:15.972Z,22.04
2022-08-03T22:56:19.119Z,20.54
2022-08-03T23:01:26.367Z,19.58
2022-08-03T23:06:38.949Z,18.93
2022-08-03T23:11:45.580Z,19.46
2022-08-03T23:16:50.802Z,21.58
2022-08-03T23:22:03.016Z,21.77
2022-08-03T23:27:09.681Z,20.19
2022-08-03T23:32:13.305Z,19.29
2022-08-03T23:37:17.808Z,18.69
2022-08-03T23:42:21.967Z,19.17
2022-08-03T23:47:25.136Z,21.31
2022-08-03T23:53:04.054Z,21.28
2022-08-03T23:58:28.282Z,19.83
